Time;durP1;ratioP1;P1;durP2;ratioP2;P2;SDS_P1;SDS_P2;PMS_P1;PMS_P2;Temp;Humidity;BMP_temperature;BMP_pressure;BME280_temperature;BME280_humidity;BME280_pressure;Samples;Min_cycle;Max_cycle;Signal;HPM_P1;HPM_P2
2023/03/31 00:00:22;;;;;;;0.03;0.03;;;;;;;9.11;100.00;101910.84;2062035;28;20587;-76
2023/03/31 00:01:47;;;;;;;0.17;0.15;;;;;;;9.14;100.00;101911.84;2061270;28;20043;-76
2023/03/31 00:03:10;;;;;;;0.05;0.05;;;;;;;9.16;100.00;101914.56;2067494;28;20046;-75
2023/03/31 00:04:31;;;;;;;0.17;0.17;;;;;;;9.19;100.00;101909.41;2053718;28;20042;-76
2023/03/31 00:05:57;;;;;;;0.10;0.10;;;;;;;9.22;100.00;101909.53;2059152;28;20618;-76
2023/03/31 00:07:22;;;;;;;0.35;0.30;;;;;;;9.24;100.00;101907.88;2071582;28;20065;-76
2023/03/31 00:08:43;;;;;;;0.10;0.10;;;;;;;9.26;100.00;101911.44;2075348;28;20054;-76
2023/03/31 00:10:09;;;;;;;3.22;0.30;;;;;;;9.30;100.00;101907.19;2060854;28;20042;-76
2023/03/31 00:11:32;;;;;;;0.10;0.10;;;;;;;9.33;100.00;101908.19;2060553;28;20053;-76
2023/03/31 00:12:53;;;;;;;0.05;0.05;;;;;;;9.37;100.00;101896.06;2062599;28;20469;-77
2023/03/31 00:14:16;;;;;;;0.00;0.00;;;;;;;9.37;100.00;101899.59;2060182;28;20586;-76
2023/03/31 00:15:38;;;;;;;0.00;0.00;;;;;;;9.38;100.00;101901.41;2065937;28;20133;-76
2023/03/31 00:17:03;;;;;;;0.00;0.00;;;;;;;9.36;100.00;101897.81;2064323;28;20153;-77
2023/03/31 00:18:26;;;;;;;0.10;0.00;;;;;;;9.32;100.00;101898.50;2073486;28;20050;-77
2023/03/31 00:19:48;;;;;;;0.00;0.00;;;;;;;9.28;100.00;101893.97;2066426;28;20136;-77
2023/03/31 00:21:23;;;;;;;0.10;0.10;;;;;;;9.27;100.00;101900.06;2061581;28;20117;-76
2023/03/31 00:22:46;;;;;;;0.00;0.00;;;;;;;9.25;100.00;101898.22;2069436;28;20054;-76
2023/03/31 00:24:10;;;;;;;0.00;0.00;;;;;;;9.23;100.00;101894.63;2067936;28;20087;-76
2023/03/31 00:25:33;;;;;;;0.00;0.00;;;;;;;9.19;100.00;101886.59;2067746;28;20405;-76
2023/03/31 00:26:55;;;;;;;0.00;0.00;;;;;;;9.18;100.00;101894.47;2064742;28;20042;-76
2023/03/31 00:28:18;;;;;;;0.00;0.00;;;;;;;9.15;100.00;101891.69;2051287;28;20050;-76
2023/03/31 00:29:42;;;;;;;0.00;0.00;;;;;;;9.12;100.00;101892.44;2059725;28;20499;-77
2023/03/31 00:31:03;;;;;;;0.30;0.30;;;;;;;9.11;100.00;101895.06;2070808;28;20038;-76
2023/03/31 00:32:27;;;;;;;0.00;0.00;;;;;;;9.11;100.00;101889.78;2067355;28;20049;-76
2023/03/31 00:33:48;;;;;;;0.00;0.00;;;;;;;9.14;100.00;101889.88;2068659;28;20054;-76
2023/03/31 00:35:11;;;;;;;0.00;0.00;;;;;;;9.19;100.00;101885.69;2067122;28;20050;-76
2023/03/31 00:36:35;;;;;;;0.10;0.10;;;;;;;9.23;100.00;101889.34;2065278;28;20046;-76
2023/03/31 00:37:58;;;;;;;0.17;0.10;;;;;;;9.26;100.00;101881.56;2064925;28;20088;-76
2023/03/31 00:39:21;;;;;;;0.00;0.00;;;;;;;9.27;100.00;101881.63;2066507;28;20085;-76
2023/03/31 00:40:46;;;;;;;0.15;0.15;;;;;;;9.28;100.00;101877.25;2069720;28;20096;-76
2023/03/31 00:42:11;;;;;;;0.00;0.00;;;;;;;9.24;100.00;101881.53;2069340;28;20101;-76
2023/03/31 00:43:36;;;;;;;0.35;0.35;;;;;;;9.22;100.00;101877.03;2061971;28;20050;-75
2023/03/31 00:45:27;;;;;;;0.00;0.00;;;;;;;9.16;100.00;101878.59;2063461;28;20612;-76
2023/03/31 00:46:54;;;;;;;0.00;0.00;;;;;;;9.14;100.00;101874.97;2072145;28;20080;-76
2023/03/31 00:48:19;;;;;;;0.03;0.00;;;;;;;9.13;100.00;101872.28;2071599;28;21796;-76
2023/03/31 00:49:45;;;;;;;0.00;0.00;;;;;;;9.14;100.00;101868.81;2069567;28;20054;-75
2023/03/31 00:51:08;;;;;;;0.25;0.25;;;;;;;9.15;100.00;101860.97;2069741;28;20850;-76
2023/03/31 00:52:36;;;;;;;0.00;0.00;;;;;;;9.23;100.00;101863.00;2064667;28;20498;-76
2023/03/31 00:54:03;;;;;;;0.10;0.10;;;;;;;9.25;100.00;101859.59;2077152;28;20056;-76
2023/03/31 00:55:32;;;;;;;0.10;0.10;;;;;;;9.30;100.00;101858.03;2067725;28;20100;-76
2023/03/31 00:57:02;;;;;;;0.00;0.00;;;;;;;9.32;100.00;101858.09;2065790;28;20412;-76
2023/03/31 00:58:27;;;;;;;0.20;0.20;;;;;;;9.33;100.00;101851.97;2076585;28;20053;-76
2023/03/31 00:59:54;;;;;;;0.00;0.00;;;;;;;9.35;100.00;101859.09;2064203;28;20081;-75
2023/03/31 01:01:19;;;;;;;0.00;0.00;;;;;;;9.37;100.00;101857.44;2068591;28;20081;-76
2023/03/31 01:02:45;;;;;;;0.10;0.10;;;;;;;9.38;100.00;101858.34;2071260;28;20046;-76
2023/03/31 01:04:09;;;;;;;0.00;0.00;;;;;;;9.39;100.00;101858.38;2082560;28;20072;-76
2023/03/31 01:05:37;;;;;;;0.00;0.00;;;;;;;9.40;100.00;101854.91;2072096;28;20463;-77
2023/03/31 01:07:08;;;;;;;0.00;0.00;;;;;;;9.37;100.00;101852.16;2061865;28;20547;-76
2023/03/31 01:08:35;;;;;;;0.00;0.00;;;;;;;9.30;100.00;101852.78;2061363;28;20145;-77
2023/03/31 01:10:00;;;;;;;0.00;0.00;;;;;;;9.25;100.00;101845.53;2066550;28;20645;-76
2023/03/31 01:11:25;;;;;;;0.10;0.10;;;;;;;9.15;100.00;101850.44;2051634;28;20050;-76
2023/03/31 01:12:50;;;;;;;0.10;0.00;;;;;;;9.08;100.00;101851.03;2058031;28;20461;-77
2023/03/31 01:14:13;;;;;;;0.32;0.20;;;;;;;9.07;100.00;101851.88;2053635;28;20089;-76
2023/03/31 01:15:35;;;;;;;0.15;0.10;;;;;;;9.10;100.00;101845.84;2074685;28;20041;-76
2023/03/31 01:16:58;;;;;;;0.20;0.10;;;;;;;9.12;100.00;101850.31;2055961;28;20432;-76
2023/03/31 01:18:20;;;;;;;0.00;0.00;;;;;;;9.13;100.00;101849.47;2062926;28;20457;-76
2023/03/31 01:19:57;;;;;;;0.35;0.35;;;;;;;9.15;100.00;101845.16;2067584;28;20050;-76
2023/03/31 01:21:46;;;;;;;0.10;0.10;;;;;;;9.20;100.00;101847.97;2072060;28;20410;-76
2023/03/31 01:23:41;;;;;;;0.55;0.10;;;;;;;9.26;100.00;101845.56;2039841;28;20051;-76
2023/03/31 01:25:26;;;;;;;0.05;0.05;;;;;;;9.28;100.00;101845.63;2056060;28;20043;-77
2023/03/31 01:27:01;;;;;;;0.00;0.00;;;;;;;9.29;100.00;101837.78;2055472;28;20384;-76
2023/03/31 01:28:32;;;;;;;0.00;0.00;;;;;;;9.29;100.00;101843.06;2067068;28;20065;-76
2023/03/31 01:30:16;;;;;;;0.00;0.00;;;;;;;9.31;100.00;101837.88;2070081;28;20058;-77
2023/03/31 01:32:03;;;;;;;0.00;0.00;;;;;;;9.33;100.00;101839.69;2063770;28;20042;-77
2023/03/31 01:34:14;;;;;;;0.00;0.00;;;;;;;9.32;100.00;101837.03;2063688;28;20653;-76
2023/03/31 01:36:12;;;;;;;0.00;0.00;;;;;;;9.30;100.00;101836.06;2071958;28;20541;-77
2023/03/31 01:38:10;;;;;;;0.00;0.00;;;;;;;9.29;100.00;101834.25;2063781;28;20039;-76
2023/03/31 01:40:14;;;;;;;0.38;0.38;;;;;;;9.27;100.00;101834.19;2063948;28;20038;-76
2023/03/31 01:41:50;;;;;;;0.00;0.00;;;;;;;9.27;100.00;101839.47;2055608;28;20051;-76
2023/03/31 01:43:18;;;;;;;0.00;0.00;;;;;;;9.29;100.00;101834.25;2077968;28;20049;-76
2023/03/31 01:44:46;;;;;;;0.00;0.00;;;;;;;9.30;100.00;101830.78;2073945;28;20675;-76
2023/03/31 01:46:21;;;;;;;0.00;0.00;;;;;;;9.32;100.00;101832.63;2057796;28;20050;-76
2023/03/31 01:47:48;;;;;;;0.00;0.00;;;;;;;9.36;100.00;101838.94;2076871;28;20055;-77
2023/03/31 01:49:22;;;;;;;0.00;0.00;;;;;;;9.39;100.00;101832.03;2071860;28;20487;-77
2023/03/31 01:50:47;;;;;;;0.00;0.00;;;;;;;9.40;100.00;101828.53;2063281;28;20053;-76
2023/03/31 01:52:19;;;;;;;0.00;0.00;;;;;;;9.39;100.00;101834.66;2064599;28;20042;-77
2023/03/31 01:53:44;;;;;;;;;;;;;;;9.32;100.00;101832.63;2069839;28;20144;-77
2023/03/31 01:55:13;;;;;;;0.20;0.00;;;;;;;9.31;100.00;101827.31;2069582;28;19952;-77
2023/03/31 01:56:41;;;;;;;0.00;0.00;;;;;;;9.31;100.00;101825.59;2063807;28;20034;-77
2023/03/31 01:58:12;;;;;;;0.00;0.00;;;;;;;9.32;100.00;101826.50;2062285;28;20035;-76
2023/03/31 01:59:41;;;;;;;0.00;0.00;;;;;;;9.32;100.00;101822.09;2065874;28;20081;-77
2023/03/31 02:01:12;;;;;;;0.00;0.00;;;;;;;9.34;100.00;101817.78;2069512;28;20054;-76
2023/03/31 02:02:39;;;;;;;0.00;0.00;;;;;;;9.37;100.00;101815.28;2053720;28;20050;-76
2023/03/31 02:04:06;;;;;;;0.00;0.00;;;;;;;9.36;100.00;101816.13;2053311;28;20047;-76
2023/03/31 02:05:34;;;;;;;0.25;0.20;;;;;;;9.37;100.00;101815.28;2065393;28;20053;-76
2023/03/31 02:07:01;;;;;;;0.00;0.00;;;;;;;9.38;100.00;101818.81;2065237;28;20042;-76
2023/03/31 02:08:27;;;;;;;0.10;0.10;;;;;;;9.38;100.00;101813.53;2070457;28;20053;-76
2023/03/31 02:09:53;;;;;;;0.00;0.00;;;;;;;9.38;100.00;101817.06;2067270;28;20049;-77
2023/03/31 02:11:16;;;;;;;0.03;0.03;;;;;;;9.39;100.00;101817.94;2055263;28;20411;-77
2023/03/31 02:12:41;;;;;;;0.03;0.03;;;;;;;9.39;100.00;101808.31;2065831;28;20053;-76
2023/03/31 02:14:10;;;;;;;0.13;0.13;;;;;;;9.38;100.00;101803.91;2068136;28;20064;-77
2023/03/31 02:15:37;;;;;;;0.15;0.00;;;;;;;9.37;100.00;101804.72;2068978;28;20087;-76
2023/03/31 02:17:03;;;;;;;0.00;0.00;;;;;;;9.38;100.00;101808.28;2063100;28;20099;-76
2023/03/31 02:18:29;;;;;;;0.00;0.00;;;;;;;9.37;100.00;101810.00;2060906;28;20042;-76
2023/03/31 02:19:52;;;;;;;0.40;0.25;;;;;;;9.39;100.00;101807.41;2067255;28;20085;-77
2023/03/31 02:21:16;;;;;;;0.00;0.00;;;;;;;9.40;100.00;101809.19;2060634;28;20120;-76
2023/03/31 02:22:41;;;;;;;0.00;0.00;;;;;;;9.38;100.00;101808.28;2055523;28;20050;-77
2023/03/31 02:24:07;;;;;;;0.10;0.10;;;;;;;9.37;100.00;101809.09;2056588;28;20042;-76
2023/03/31 02:25:35;;;;;;;0.00;0.00;;;;;;;9.33;100.00;101818.63;2068993;28;20041;-76
2023/03/31 02:27:05;;;;;;;0.10;0.00;;;;;;;9.29;100.00;101803.53;2064111;28;20137;-76
2023/03/31 02:28:29;;;;;;;0.20;0.20;;;;;;;9.29;100.00;101818.44;2067788;28;20060;-76
2023/03/31 02:29:55;;;;;;;0.00;0.00;;;;;;;9.24;100.00;101814.75;2058583;28;20074;-76
2023/03/31 02:31:27;;;;;;;1.00;0.30;;;;;;;9.18;100.00;101823.31;2059862;28;20105;-76
2023/03/31 02:32:50;;;;;;;0.00;0.00;;;;;;;9.13;100.00;101815.22;2068284;28;20038;-76
2023/03/31 02:34:13;;;;;;;0.10;0.10;;;;;;;9.13;100.00;101811.69;2060489;28;20101;-76
2023/03/31 02:35:35;;;;;;;0.00;0.00;;;;;;;9.12;100.00;101815.19;2074918;28;20042;-77
2023/03/31 02:36:59;;;;;;;0.30;0.30;;;;;;;9.13;100.00;101814.31;2063559;28;20104;-76
2023/03/31 02:38:20;;;;;;;0.00;0.00;;;;;;;9.11;100.00;101811.66;2060259;28;20076;-76
2023/03/31 02:39:46;;;;;;;0.00;0.00;;;;;;;9.10;100.00;101817.75;2073096;28;20045;-76
2023/03/31 02:41:08;;;;;;;0.10;0.10;;;;;;;9.08;100.00;101813.25;2063543;28;20144;-76
2023/03/31 02:42:30;;;;;;;0.00;0.00;;;;;;;9.06;100.00;101815.81;2072626;28;20042;-76
2023/03/31 02:43:53;;;;;;;0.43;0.30;;;;;;;9.05;100.00;101811.44;2064751;28;20043;-76
2023/03/31 02:45:39;;;;;;;0.00;0.00;;;;;;;9.05;100.00;101813.16;2050792;28;20058;-76
2023/03/31 02:47:05;;;;;;;0.00;0.00;;;;;;;9.03;100.00;101814.81;2063336;28;20042;-76
2023/03/31 02:48:31;;;;;;;0.00;0.00;;;;;;;9.04;100.00;101808.72;2073298;28;20049;-76
2023/03/31 02:49:58;;;;;;;0.00;0.00;;;;;;;9.04;100.00;101817.53;2068805;28;20054;-76
2023/03/31 02:51:47;;;;;;;0.00;0.00;;;;;;;9.02;100.00;101813.03;2060062;28;20154;-76
2023/03/31 02:53:16;;;;;;;0.15;0.15;;;;;;;9.01;100.00;101811.22;2070291;28;20080;-76
2023/03/31 02:55:06;;;;;;;0.00;0.00;;;;;;;9.05;100.00;101814.06;2067556;28;20088;-76
2023/03/31 02:56:49;;;;;;;0.00;0.00;;;;;;;9.05;100.00;101821.06;2067287;28;20049;-76
2023/03/31 02:58:38;;;;;;;0.00;0.00;;;;;;;9.05;100.00;101821.97;2069174;28;20149;-76
2023/03/31 03:00:13;;;;;;;0.10;0.10;;;;;;;9.06;100.00;101817.56;2068901;28;20042;-76
2023/03/31 03:01:53;;;;;;;0.00;0.00;;;;;;;9.06;100.00;101820.19;2067348;28;20041;-76
2023/03/31 03:03:29;;;;;;;0.00;0.00;;;;;;;9.04;100.00;101824.53;2074862;28;20068;-76
2023/03/31 03:05:12;;;;;;;0.00;0.00;;;;;;;9.01;100.00;101813.88;2069802;28;20128;-77
2023/03/31 03:06:53;;;;;;;0.00;0.00;;;;;;;8.99;100.00;101821.69;2071342;28;20160;-76
2023/03/31 03:08:29;;;;;;;0.00;0.00;;;;;;;8.98;100.00;101826.94;2072652;28;20046;-76
2023/03/31 03:10:02;;;;;;;0.00;0.00;;;;;;;8.96;100.00;101826.84;2074396;28;20045;-76
2023/03/31 03:11:27;;;;;;;;;;;;;;;8.91;100.00;101823.16;2068719;28;20075;-77
2023/03/31 03:12:54;;;;;;;0.00;0.00;;;;;;;8.91;100.00;101825.78;2066552;28;19972;-77
2023/03/31 03:14:29;;;;;;;0.00;0.00;;;;;;;8.91;100.00;101836.31;2068191;28;20855;-78
2023/03/31 03:15:59;;;;;;;0.15;0.15;;;;;;;8.90;100.00;101833.63;2066462;28;20057;-77
2023/03/31 03:17:27;;;;;;;0.85;0.13;;;;;;;8.90;100.00;101833.63;2053699;28;20053;-78
2023/03/31 03:18:57;;;;;;;0.08;0.08;;;;;;;8.89;100.00;101832.72;2061282;28;20394;-78
2023/03/31 03:20:21;;;;;;;0.08;0.08;;;;;;;8.89;100.00;101835.34;2061242;28;20050;-77
2023/03/31 03:21:44;;;;;;;0.05;0.05;;;;;;;8.88;100.00;101838.81;2068953;28;20509;-77
2023/03/31 03:23:07;;;;;;;0.20;0.00;;;;;;;8.86;100.00;101836.97;2073604;28;20136;-78
2023/03/31 03:24:28;;;;;;;0.20;0.13;;;;;;;8.86;100.00;101829.09;2062093;28;20506;-77
2023/03/31 03:25:50;;;;;;;0.00;0.00;;;;;;;8.86;100.00;101834.34;2064469;28;20057;-77
2023/03/31 03:27:13;;;;;;;0.55;0.17;;;;;;;8.86;100.00;101831.72;2066065;28;20080;-77
2023/03/31 03:28:35;;;;;;;0.00;0.00;;;;;;;8.83;100.00;101824.59;2065795;28;20726;-77
2023/03/31 03:29:57;;;;;;;0.00;0.00;;;;;;;8.81;100.00;101834.16;2067811;28;20034;-78
2023/03/31 03:31:19;;;;;;;0.00;0.00;;;;;;;8.79;100.00;101828.81;2062897;28;20053;-77
2023/03/31 03:32:43;;;;;;;0.00;0.00;;;;;;;8.80;100.00;101824.44;2064504;28;20045;-78
2023/03/31 03:34:05;;;;;;;0.00;0.00;;;;;;;8.82;100.00;101824.50;2066425;28;20505;-77
2023/03/31 03:35:28;;;;;;;0.00;0.00;;;;;;;8.83;100.00;101826.31;2080959;28;20059;-78
2023/03/31 03:36:50;;;;;;;0.15;0.13;;;;;;;8.85;100.00;101822.00;2076204;28;20052;-78
2023/03/31 03:38:13;;;;;;;0.00;0.00;;;;;;;8.88;100.00;101819.47;2070036;28;20410;-77
2023/03/31 03:39:34;;;;;;;0.00;0.00;;;;;;;8.90;100.00;101821.34;2060669;28;20047;-77
2023/03/31 03:40:57;;;;;;;0.00;0.00;;;;;;;8.90;100.00;101816.09;2070673;28;20048;-77
2023/03/31 03:42:20;;;;;;;0.00;0.00;;;;;;;8.95;100.00;101811.00;2064327;28;20062;-78
2023/03/31 03:43:42;;;;;;;0.00;0.00;;;;;;;8.97;100.00;101812.88;2083586;28;20468;-77
2023/03/31 03:45:06;;;;;;;0.43;0.20;;;;;;;9.03;100.00;101806.94;2064377;28;20047;-77
2023/03/31 03:46:27;;;;;;;0.20;0.20;;;;;;;9.07;100.00;101808.81;2058011;28;20047;-77
2023/03/31 03:47:51;;;;;;;0.00;0.00;;;;;;;9.10;100.00;101803.69;2058551;28;20050;-78
2023/03/31 03:49:14;;;;;;;0.00;0.00;;;;;;;9.10;100.00;101804.59;2074215;28;20052;-77
2023/03/31 03:50:38;;;;;;;0.00;0.00;;;;;;;9.10;100.00;101812.50;2066603;28;20050;-78
2023/03/31 03:51:59;;;;;;;0.30;0.20;;;;;;;9.10;100.00;101804.59;2072295;28;20038;-77
2023/03/31 03:53:22;;;;;;;0.00;0.00;;;;;;;9.11;100.00;101802.84;2067963;28;20474;-77
2023/03/31 03:54:43;;;;;;;0.00;0.00;;;;;;;9.09;100.00;101801.91;2072413;28;20049;-77
2023/03/31 03:56:07;;;;;;;0.85;0.25;;;;;;;9.07;100.00;101806.19;2083351;28;20088;-77
2023/03/31 03:57:29;;;;;;;0.15;0.10;;;;;;;9.06;100.00;101802.66;2071270;28;20465;-77
2023/03/31 03:58:51;;;;;;;0.10;0.10;;;;;;;9.03;100.00;101806.94;2054254;28;20596;-76
2023/03/31 04:00:14;;;;;;;0.10;0.10;;;;;;;9.01;100.00;101803.31;2071795;28;20080;-76
2023/03/31 04:01:36;;;;;;;0.00;0.00;;;;;;;8.98;100.00;101801.50;2061794;28;20514;-77
2023/03/31 04:03:01;;;;;;;0.00;0.00;;;;;;;8.96;100.00;101797.00;2064681;28;20180;-76
2023/03/31 04:04:22;;;;;;;0.22;0.22;;;;;;;8.92;100.00;101797.72;2048893;28;20065;-76
2023/03/31 04:05:45;;;;;;;0.00;0.00;;;;;;;8.89;100.00;101797.59;2067264;28;20038;-77
2023/03/31 04:07:07;;;;;;;3.72;0.35;;;;;;;8.86;100.00;101792.22;2075387;28;20045;-76
2023/03/31 04:08:28;;;;;;;0.08;0.08;;;;;;;8.83;100.00;101787.72;2060087;28;20390;-76
2023/03/31 04:09:51;;;;;;;0.20;0.13;;;;;;;8.80;100.00;101791.13;2066920;28;20165;-77
2023/03/31 04:11:15;;;;;;;0.00;0.00;;;;;;;8.83;100.00;101793.00;2070901;28;20414;-77
2023/03/31 04:12:38;;;;;;;0.00;0.00;;;;;;;8.88;100.00;101793.16;2064389;28;20048;-77
2023/03/31 04:14:00;;;;;;;0.00;0.00;;;;;;;8.93;100.00;101788.97;2049904;28;20125;-76
2023/03/31 04:15:22;;;;;;;0.00;0.00;;;;;;;8.97;100.00;101790.91;2051311;28;20070;-77
2023/03/31 04:16:47;;;;;;;0.00;0.00;;;;;;;8.95;100.00;101787.28;2068514;28;20067;-76
2023/03/31 04:18:21;;;;;;;0.57;0.43;;;;;;;8.83;100.00;101784.19;2077053;28;20060;-76
2023/03/31 04:19:44;;;;;;;1.27;0.65;;;;;;;8.77;100.00;101783.13;2070674;28;20056;-76
2023/03/31 04:21:05;;;;;;;1.85;0.98;;;;;;;8.83;100.00;101790.34;2068208;28;20054;-77
2023/03/31 04:22:33;;;;;;;0.00;0.00;;;;;;;8.90;100.00;101783.59;2076752;28;20037;-76
2023/03/31 04:24:00;;;;;;;0.00;0.00;;;;;;;8.94;100.00;101788.13;2054206;28;20054;-77
2023/03/31 04:25:23;;;;;;;1.75;0.40;;;;;;;9.02;100.00;101794.59;2070043;28;20049;-77
2023/03/31 04:26:45;;;;;;;0.20;0.20;;;;;;;9.10;100.00;101794.06;2067577;28;20050;-76
2023/03/31 04:28:09;;;;;;;0.32;0.32;;;;;;;9.22;100.00;101790.09;2070740;28;20038;-76
2023/03/31 04:29:32;;;;;;;0.30;0.30;;;;;;;9.32;100.00;101795.75;2061353;28;20093;-76
2023/03/31 04:30:53;;;;;;;0.10;0.10;;;;;;;9.42;100.00;101789.97;2066865;28;20107;-77
2023/03/31 04:32:20;;;;;;;0.10;0.10;;;;;;;9.49;100.00;101791.09;2072035;28;20046;-76
2023/03/31 04:33:44;;;;;;;0.00;0.00;;;;;;;9.62;100.00;101784.53;2072408;28;20096;-76
2023/03/31 04:35:07;;;;;;;0.20;0.20;;;;;;;9.72;100.00;101778.72;2064088;28;20445;-77
2023/03/31 04:36:30;;;;;;;2.30;1.17;;;;;;;9.81;100.00;101777.31;2069981;28;20112;-77
2023/03/31 04:37:57;;;;;;;0.20;0.20;;;;;;;9.91;100.00;101773.28;2061852;28;20086;-78
2023/03/31 04:39:25;;;;;;;0.00;0.00;;;;;;;10.02;100.00;101776.28;2060330;28;20034;-77
2023/03/31 04:40:50;;;;;;;0.10;0.10;;;;;;;10.13;100.00;101770.50;2076923;28;20136;-77
2023/03/31 04:42:13;;;;;;;0.35;0.35;;;;;;;10.26;100.00;101772.75;2067562;28;20153;-77
2023/03/31 04:43:36;;;;;;;0.10;0.10;;;;;;;10.37;100.00;101768.69;2068475;28;20100;-78
2023/03/31 04:44:58;;;;;;;0.00;0.00;;;;;;;10.51;100.00;101770.88;2066343;28;20046;-77
2023/03/31 04:46:21;;;;;;;0.10;0.10;;;;;;;10.61;100.00;101765.97;2061645;28;20617;-78
2023/03/31 04:47:43;;;;;;;0.03;0.03;;;;;;;10.72;100.00;101769.84;2065456;28;20059;-78
2023/03/31 04:49:07;;;;;;;0.08;0.08;;;;;;;10.84;100.00;101766.66;2059725;28;20053;-77
2023/03/31 04:50:29;;;;;;;0.00;0.00;;;;;;;10.95;100.00;101770.56;2067336;28;20029;-78
2023/03/31 04:51:52;;;;;;;0.52;0.43;;;;;;;11.08;100.00;101763.88;2083306;28;20083;-76
2023/03/31 04:53:14;;;;;;;0.00;0.00;;;;;;;11.18;100.00;101761.53;2072161;28;20096;-76
2023/03/31 04:54:37;;;;;;;0.13;0.13;;;;;;;11.30;100.00;101760.09;2075184;28;20053;-76
2023/03/31 04:55:59;;;;;;;0.10;0.10;;;;;;;11.41;100.00;101759.56;2070375;28;20073;-76
2023/03/31 04:57:21;;;;;;;0.00;0.00;;;;;;;11.54;100.00;101771.38;2066037;28;20804;-76
2023/03/31 04:58:44;;;;;;;0.00;0.00;;;;;;;11.65;100.00;101754.06;2058884;28;20534;-76
2023/03/31 05:00:09;;;;;;;0.00;0.00;;;;;;;11.76;100.00;101763.19;2068431;28;20061;-77
2023/03/31 05:01:35;;;;;;;0.00;0.00;;;;;;;11.86;100.00;101764.34;2062195;28;20046;-77
2023/03/31 05:02:57;;;;;;;0.00;0.00;;;;;;;11.95;100.00;101760.19;2061852;28;20151;-77
2023/03/31 05:04:21;;;;;;;0.00;0.00;;;;;;;12.03;100.00;101763.03;2068679;28;20053;-77
2023/03/31 05:05:42;;;;;;;0.00;0.00;;;;;;;12.10;100.00;101758.78;2064009;28;20125;-78
2023/03/31 05:07:05;;;;;;;0.00;0.00;;;;;;;12.18;100.00;101763.44;2056462;28;20489;-77
2023/03/31 05:08:26;;;;;;;0.00;0.00;;;;;;;12.24;100.00;101765.31;2056361;28;20047;-77
2023/03/31 05:09:49;;;;;;;0.00;0.00;;;;;;;12.31;100.00;101751.38;2068691;28;20038;-74
2023/03/31 05:11:11;;;;;;;0.00;0.00;;;;;;;12.42;100.00;101752.53;2066725;28;20057;-75
2023/03/31 05:12:35;;;;;;;0.00;0.00;;;;;;;12.54;100.00;101760.75;2070662;28;20044;-74
2023/03/31 05:13:58;;;;;;;0.00;0.00;;;;;;;12.66;100.00;101757.53;2055495;28;20047;-74
2023/03/31 05:15:20;;;;;;;0.00;0.00;;;;;;;12.76;100.00;101760.41;2064689;28;20057;-75
2023/03/31 05:16:43;;;;;;;0.00;0.00;;;;;;;12.88;100.00;101758.88;2069742;28;20049;-74
2023/03/31 05:18:06;;;;;;;0.00;0.00;;;;;;;12.98;100.00;101759.13;2060467;28;20030;-75
2023/03/31 05:19:31;;;;;;;0.00;0.00;;;;;;;13.10;100.00;101766.44;2056114;28;20043;-75
2023/03/31 05:20:53;;;;;;;0.00;0.00;;;;;;;13.21;100.00;101762.28;2081712;28;20440;-75
2023/03/31 05:22:19;;;;;;;0.00;0.00;;;;;;;13.32;100.00;101755.47;2072067;28;20685;-76
2023/03/31 05:23:41;;;;;;;0.00;0.00;;;;;;;13.47;100.00;101750.47;2078111;28;20541;-75
2023/03/31 05:25:06;;;;;;;0.00;0.00;;;;;;;13.63;100.00;101753.41;2077475;28;20045;-75
2023/03/31 05:26:29;;;;;;;0.38;0.00;;;;;;;13.74;100.00;101752.75;2068402;28;20096;-75
2023/03/31 05:27:51;;;;;;;0.00;0.00;;;;;;;13.88;100.00;101753.00;2073255;28;20038;-75
2023/03/31 05:29:15;;;;;;;0.10;0.10;;;;;;;14.02;100.00;101747.94;2071904;28;20042;-75
2023/03/31 05:30:37;;;;;;;0.00;0.00;;;;;;;14.15;100.00;101756.13;2069280;28;20475;-74
2023/03/31 05:32:00;;;;;;;0.00;0.00;;;;;;;14.29;100.00;101748.41;2063460;28;20046;-75
2023/03/31 05:33:22;;;;;;;0.20;0.20;;;;;;;14.43;100.00;101746.91;2069403;28;20144;-75
2023/03/31 05:34:46;;;;;;;0.00;0.00;;;;;;;14.53;100.00;101746.16;2069126;28;20686;-75
2023/03/31 05:36:10;;;;;;;0.00;0.00;;;;;;;14.64;100.00;101746.31;2061458;28;20514;-76
2023/03/31 05:37:33;;;;;;;0.00;0.00;;;;;;;14.77;100.00;101750.94;2061860;28;20034;-76
2023/03/31 05:38:56;;;;;;;0.25;0.25;;;;;;;14.87;100.00;101739.56;2073830;28;20065;-76
2023/03/31 05:40:18;;;;;;;0.00;0.00;;;;;;;14.98;100.00;101737.94;2077477;28;20042;-75
2023/03/31 05:41:41;;;;;;;0.47;0.43;;;;;;;15.13;100.00;101743.47;2075117;28;20671;-76
2023/03/31 05:43:03;;;;;;;0.00;0.00;;;;;;;15.26;100.00;101738.28;2071748;28;20058;-75
2023/03/31 05:44:26;;;;;;;5.78;0.20;;;;;;;15.40;100.00;101736.69;2053306;28;20050;-77
2023/03/31 05:45:48;;;;;;;0.08;0.08;;;;;;;15.50;100.00;101739.47;2059807;28;20038;-76
2023/03/31 05:47:10;;;;;;;0.00;0.00;;;;;;;15.63;100.00;101737.84;2072913;28;20123;-77
2023/03/31 05:48:32;;;;;;;0.00;0.00;;;;;;;15.76;100.00;101736.22;2069196;28;20045;-77
2023/03/31 05:49:57;;;;;;;0.00;0.00;;;;;;;15.90;100.00;101737.25;2065876;28;20054;-77
2023/03/31 05:51:19;;;;;;;0.15;0.10;;;;;;;16.03;100.00;101735.59;2056622;28;20062;-77
2023/03/31 05:52:42;;;;;;;0.00;0.00;;;;;;;16.14;100.00;101734.81;2054605;28;20490;-77
2023/03/31 05:54:05;;;;;;;0.10;0.10;;;;;;;16.26;100.00;101734.03;2058163;28;20481;-76
2023/03/31 05:55:27;;;;;;;0.00;0.00;;;;;;;16.38;100.00;101731.44;2071042;28;20099;-76
2023/03/31 05:56:50;;;;;;;0.17;0.17;;;;;;;16.50;100.00;101728.88;2060049;28;20080;-76
2023/03/31 05:58:13;;;;;;;0.55;0.55;;;;;;;16.63;100.00;101729.88;2074243;28;20060;-76
2023/03/31 05:59:37;;;;;;;0.00;0.00;;;;;;;16.74;100.00;101723.72;2075192;28;20041;-76
2023/03/31 06:01:05;;;;;;;0.00;0.00;;;;;;;16.88;100.00;101722.91;2068791;28;20124;-76
2023/03/31 06:02:28;;;;;;;0.00;0.00;;;;;;;17.02;100.00;101722.09;2068734;28;20053;-77
2023/03/31 06:03:51;;;;;;;0.03;0.03;;;;;;;17.16;100.00;101719.47;2064433;28;20046;-77
2023/03/31 06:05:15;;;;;;;0.68;0.50;;;;;;;17.31;100.00;101724.00;2060867;28;20066;-77
2023/03/31 06:06:38;;;;;;;1.08;0.93;;;;;;;17.45;100.00;101723.16;2072944;28;20041;-77
2023/03/31 06:08:01;;;;;;;0.20;0.20;;;;;;;17.61;100.00;101729.44;2068435;28;20678;-77
2023/03/31 06:09:24;;;;;;;1.13;1.02;;;;;;;17.75;100.00;101725.03;2053235;28;20055;-77
2023/03/31 06:10:46;;;;;;;0.73;0.52;;;;;;;17.86;100.00;101733.03;2058702;28;20145;-76
2023/03/31 06:12:09;;;;;;;0.40;0.40;;;;;;;18.02;100.00;101732.19;2070971;28;20049;-77
2023/03/31 06:13:32;;;;;;;1.45;0.70;;;;;;;18.15;100.00;101728.63;2065019;28;20046;-76
2023/03/31 06:14:54;;;;;;;0.70;0.60;;;;;;;18.26;100.00;101724.16;2058647;28;20042;-76
2023/03/31 06:16:18;;;;;;;0.17;0.13;;;;;;;18.41;100.00;101722.38;2066513;28;20666;-76
2023/03/31 06:17:41;;;;;;;0.75;0.68;;;;;;;18.52;100.00;101710.75;2061283;28;20549;-76
2023/03/31 06:19:03;;;;;;;0.08;0.08;;;;;;;18.65;100.00;101725.91;2069158;28;20037;-76
2023/03/31 06:20:28;;;;;;;0.20;0.20;;;;;;;18.75;100.00;101718.78;2071180;28;20691;-75
2023/03/31 06:21:51;;;;;;;0.15;0.10;;;;;;;18.87;100.00;101718.72;2063635;28;20049;-76
2023/03/31 06:23:12;;;;;;;0.00;0.00;;;;;;;19.00;100.00;101715.13;2070720;28;20462;-76
2023/03/31 06:24:35;;;;;;;0.10;0.10;;;;;;;19.10;100.00;101716.84;2065314;28;20080;-76
2023/03/31 06:26:02;;;;;;;0.28;0.28;;;;;;;19.25;100.00;101720.38;2058107;28;20081;-76
2023/03/31 06:27:24;;;;;;;0.00;0.00;;;;;;;19.35;100.00;101716.75;2063050;28;20053;-77
2023/03/31 06:28:47;;;;;;;0.43;0.43;;;;;;;19.48;100.00;101711.38;2058259;28;20093;-77
2023/03/31 06:30:10;;;;;;;0.10;0.10;;;;;;;19.55;100.00;101717.56;2072946;28;20037;-76
2023/03/31 06:31:33;;;;;;;1.13;1.02;;;;;;;19.66;99.79;101713.03;2069086;28;20038;-77
2023/03/31 06:32:54;;;;;;;0.08;0.08;;;;;;;19.78;98.29;101714.72;2070245;28;20548;-77
2023/03/31 06:34:16;;;;;;;0.00;0.00;;;;;;;19.87;97.49;101707.53;2063727;28;20700;-77
2023/03/31 06:35:41;;;;;;;0.08;0.08;;;;;;;19.98;97.05;101707.44;2067194;28;20045;-77
2023/03/31 06:37:04;;;;;;;0.00;0.00;;;;;;;20.04;95.76;101704.69;2069037;28;20266;-77
2023/03/31 06:38:25;;;;;;;0.00;0.00;;;;;;;20.13;94.85;101704.63;2064044;28;20046;-77
2023/03/31 06:39:48;;;;;;;0.00;0.00;;;;;;;20.16;92.68;101699.22;2070698;28;20136;-77